createdAt,value
2022-08-31T00:02:53.342Z,20.80
2022-08-31T00:05:59.948Z,20.80
2022-08-31T00:09:03.610Z,20.80
2022-08-31T00:12:05.490Z,20.70
2022-08-31T00:15:07.985Z,20.70
2022-08-31T00:18:10.418Z,20.70
2022-08-31T00:21:12.121Z,20.80
2022-08-31T00:24:14.567Z,20.70
2022-08-31T00:27:16.476Z,20.70
2022-08-31T00:30:18.339Z,20.70
2022-08-31T00:33:20.594Z,20.70
2022-08-31T00:36:24.508Z,20.70
2022-08-31T00:39:26.249Z,20.70
2022-08-31T00:42:27.983Z,20.60
2022-08-31T00:45:30.284Z,20.50
2022-08-31T00:48:32.421Z,20.40
2022-08-31T00:51:39.622Z,20.40
2022-08-31T00:54:59.694Z,20.40
2022-08-31T00:58:06.580Z,20.40
2022-08-31T01:01:09.987Z,20.30
2022-08-31T01:04:11.833Z,20.20
2022-08-31T01:07:14.574Z,20.20
2022-08-31T01:10:19.160Z,20.20
2022-08-31T01:13:21.596Z,20.20
2022-08-31T01:16:34.112Z,20.20
2022-08-31T01:19:44.423Z,20.10
2022-08-31T01:22:52.131Z,20.10
2022-08-31T01:25:57.501Z,20.10
2022-08-31T01:29:04.237Z,20.10
2022-08-31T01:32:07.222Z,20.10
2022-08-31T01:35:11.467Z,20.10
2022-08-31T01:38:13.990Z,20.10
2022-08-31T01:41:15.997Z,20.10
2022-08-31T01:44:20.733Z,20.00
2022-08-31T01:47:22.488Z,20.00
2022-08-31T01:50:26.788Z,19.90
2022-08-31T01:53:28.861Z,19.80
2022-08-31T01:56:40.474Z,19.70
2022-08-31T01:59:42.262Z,19.70
2022-08-31T02:02:44.682Z,19.70
2022-08-31T02:05:46.635Z,19.60
2022-08-31T02:08:48.754Z,19.60
2022-08-31T02:11:51.536Z,19.70
2022-08-31T02:14:53.692Z,19.70
2022-08-31T02:17:55.747Z,19.60
2022-08-31T02:20:57.582Z,19.60
2022-08-31T02:23:59.441Z,19.50
2022-08-31T02:27:01.518Z,19.40
2022-08-31T02:30:11.102Z,19.50
2022-08-31T02:33:13.136Z,19.40
2022-08-31T02:36:14.999Z,19.40
2022-08-31T02:39:17.347Z,19.30
2022-08-31T02:42:19.139Z,19.20
2022-08-31T02:45:21.923Z,19.30
2022-08-31T02:48:24.033Z,19.20
2022-08-31T02:51:25.826Z,19.10
2022-08-31T02:54:27.593Z,19.10
2022-08-31T02:57:29.697Z,19.10
2022-08-31T03:00:32.449Z,19.00
2022-08-31T03:03:34.944Z,19.00
2022-08-31T03:06:36.775Z,19.00
2022-08-31T03:09:38.796Z,19.00
2022-08-31T03:12:40.530Z,19.00
2022-08-31T03:15:42.781Z,19.00
2022-08-31T03:18:46.151Z,19.00
2022-08-31T03:21:48.245Z,18.90
2022-08-31T03:24:57.753Z,18.80
2022-08-31T03:27:59.666Z,18.90
2022-08-31T03:31:05.833Z,18.90
2022-08-31T03:34:07.610Z,18.80
2022-08-31T03:37:09.328Z,18.80
2022-08-31T03:40:11.637Z,18.80
2022-08-31T03:43:14.535Z,18.80
2022-08-31T03:46:16.295Z,18.80
2022-08-31T03:49:21.192Z,18.80
2022-08-31T03:52:26.770Z,18.80
2022-08-31T03:55:28.683Z,18.70
2022-08-31T03:58:31.756Z,18.60
2022-08-31T04:01:36.558Z,18.60
2022-08-31T04:04:38.295Z,18.70
2022-08-31T04:07:42.420Z,18.70
2022-08-31T04:10:47.229Z,18.60
2022-08-31T04:13:49.436Z,18.70
2022-08-31T04:16:51.473Z,18.60
2022-08-31T04:19:53.362Z,18.60
2022-08-31T04:22:55.292Z,18.60
2022-08-31T04:25:58.193Z,18.60
2022-08-31T04:29:00.854Z,18.70
2022-08-31T04:32:02.830Z,18.60
2022-08-31T04:35:05.307Z,18.60
2022-08-31T04:38:07.825Z,18.60
2022-08-31T04:41:14.045Z,18.60
2022-08-31T04:44:19.677Z,18.60
2022-08-31T04:47:22.031Z,18.60
2022-08-31T04:50:23.871Z,18.60
2022-08-31T04:53:25.603Z,18.60
2022-08-31T04:56:31.240Z,18.60
2022-08-31T04:59:33.176Z,18.60
2022-08-31T05:02:36.710Z,18.60
2022-08-31T05:05:39.675Z,18.60
2022-08-31T05:08:41.742Z,18.60
2022-08-31T05:11:44.144Z,18.60
2022-08-31T05:14:47.869Z,18.50
2022-08-31T05:17:50.032Z,18.60
2022-08-31T05:20:51.881Z,18.60
2022-08-31T05:24:09.438Z,18.50
2022-08-31T05:27:11.427Z,18.60
2022-08-31T05:30:13.630Z,18.60
2022-08-31T05:33:16.868Z,18.50
2022-08-31T05:36:18.853Z,18.40
2022-08-31T05:39:21.339Z,18.40
2022-08-31T05:42:23.125Z,18.40
2022-08-31T05:45:25.109Z,18.40
2022-08-31T05:48:29.900Z,18.30
2022-08-31T05:51:37.862Z,18.30
2022-08-31T05:54:40.624Z,18.40
2022-08-31T05:57:43.089Z,18.40
2022-08-31T06:00:45.045Z,18.40
2022-08-31T06:03:48.248Z,18.50
2022-08-31T06:06:50.101Z,18.40
2022-08-31T06:09:51.891Z,18.40
2022-08-31T06:12:53.951Z,18.40
2022-08-31T06:15:58.187Z,18.40
2022-08-31T06:19:03.464Z,18.50
2022-08-31T06:22:05.560Z,18.40
2022-08-31T06:25:08.301Z,18.50
2022-08-31T06:28:14.304Z,18.50
2022-08-31T06:31:31.644Z,18.50
2022-08-31T06:34:34.397Z,18.60
2022-08-31T06:37:36.387Z,18.60
2022-08-31T06:40:38.312Z,18.60
2022-08-31T06:43:40.179Z,18.60
2022-08-31T06:46:42.229Z,18.60
2022-08-31T06:49:49.278Z,18.60
2022-08-31T06:52:51.025Z,18.60
2022-08-31T06:55:52.762Z,18.60
2022-08-31T06:58:54.585Z,18.60
2022-08-31T07:01:58.998Z,18.60
2022-08-31T07:05:00.876Z,18.60
2022-08-31T07:08:02.886Z,18.70
2022-08-31T07:11:04.872Z,18.70
2022-08-31T07:14:12.331Z,18.70
2022-08-31T07:17:14.431Z,18.80
2022-08-31T07:20:16.436Z,18.80
2022-08-31T07:23:18.185Z,18.80
2022-08-31T07:26:28.074Z,18.80
2022-08-31T07:29:34.062Z,18.80
2022-08-31T07:32:35.927Z,18.80
2022-08-31T07:35:37.642Z,18.90
2022-08-31T07:38:59.435Z,18.90
2022-08-31T07:42:10.509Z,18.90
2022-08-31T07:45:25.712Z,18.90
2022-08-31T07:48:31.120Z,19.00
2022-08-31T07:51:35.594Z,19.00
2022-08-31T07:54:37.987Z,19.00
2022-08-31T07:57:44.211Z,19.00
2022-08-31T08:00:48.681Z,19.00
2022-08-31T08:03:53.595Z,19.00
2022-08-31T08:06:57.897Z,19.00
2022-08-31T08:10:04.848Z,19.10
2022-08-31T08:13:07.888Z,19.00
2022-08-31T08:16:10.087Z,19.00
2022-08-31T08:19:12.063Z,19.10
2022-08-31T08:22:17.033Z,19.20
2022-08-31T08:25:35.111Z,19.20
2022-08-31T08:28:41.023Z,19.20
2022-08-31T08:31:43.787Z,19.20
2022-08-31T08:34:45.988Z,19.30
2022-08-31T08:37:58.451Z,19.30
2022-08-31T08:41:05.423Z,19.30
2022-08-31T08:44:17.950Z,19.40
2022-08-31T08:47:28.765Z,19.30
2022-08-31T08:50:41.895Z,19.30
2022-08-31T08:53:46.700Z,19.30
2022-08-31T08:56:49.068Z,19.30
2022-08-31T08:59:54.102Z,19.20
2022-08-31T09:03:01.905Z,19.20
2022-08-31T09:06:25.252Z,19.20
2022-08-31T09:10:08.422Z,19.20
2022-08-31T09:13:20.254Z,19.20
2022-08-31T09:16:30.104Z,19.30
2022-08-31T09:19:52.157Z,19.40
2022-08-31T09:22:57.307Z,19.40
2022-08-31T09:25:59.106Z,19.40
2022-08-31T09:29:03.740Z,19.60
2022-08-31T09:32:09.083Z,19.60
2022-08-31T09:35:26.603Z,19.70
2022-08-31T09:38:37.685Z,19.70
2022-08-31T09:41:39.664Z,19.70
2022-08-31T09:44:42.935Z,19.70
2022-08-31T09:47:53.500Z,19.80
2022-08-31T09:51:01.776Z,19.80
2022-08-31T09:54:37.414Z,19.80
2022-08-31T09:57:57.809Z,19.90
2022-08-31T10:01:13.272Z,20.00
2022-08-31T10:04:25.959Z,20.00
2022-08-31T10:07:40.380Z,20.10
2022-08-31T10:10:44.914Z,20.10
2022-08-31T10:21:59.904Z,20.30
2022-08-31T10:26:18.003Z,20.30
2022-08-31T10:34:31.491Z,20.60
2022-08-31T10:37:42.124Z,20.70
2022-08-31T10:41:06.308Z,20.70
2022-08-31T10:44:36.402Z,20.80
2022-08-31T10:47:44.898Z,20.90
2022-08-31T10:50:51.915Z,20.90
2022-08-31T10:54:18.290Z,21.00
2022-08-31T10:57:47.238Z,21.10
2022-08-31T11:01:16.399Z,21.10
2022-08-31T11:04:48.474Z,21.20
2022-08-31T11:07:57.496Z,21.20
2022-08-31T11:11:03.173Z,21.30
2022-08-31T11:14:32.467Z,21.30
2022-08-31T11:17:47.327Z,21.30
2022-08-31T11:21:05.180Z,21.40
2022-08-31T11:24:25.478Z,21.50
2022-08-31T11:27:40.104Z,21.50
2022-08-31T11:30:50.867Z,21.60
2022-08-31T11:34:25.684Z,21.70
2022-08-31T11:37:52.143Z,21.80
2022-08-31T11:41:03.757Z,22.00
2022-08-31T11:44:08.920Z,21.90
2022-08-31T11:47:30.218Z,22.00
2022-08-31T11:50:50.734Z,21.90
2022-08-31T11:53:52.921Z,22.00
2022-08-31T11:57:03.325Z,22.10
2022-08-31T12:00:19.435Z,22.10
2022-08-31T12:03:35.878Z,22.20
2022-08-31T12:06:38.044Z,22.20
2022-08-31T12:09:54.602Z,22.30
2022-08-31T12:13:19.516Z,22.40
2022-08-31T12:16:28.082Z,22.40
2022-08-31T12:20:02.308Z,22.40
2022-08-31T12:23:37.770Z,22.40
2022-08-31T12:26:45.698Z,22.50
2022-08-31T12:29:47.593Z,22.60
2022-08-31T12:32:59.740Z,22.60
2022-08-31T12:36:17.685Z,22.70
2022-08-31T12:39:20.917Z,22.70
2022-08-31T12:42:23.638Z,22.80
2022-08-31T12:46:04.544Z,22.80
2022-08-31T12:49:12.127Z,22.90
2022-08-31T12:52:30.471Z,23.00
2022-08-31T12:55:50.414Z,23.00
2022-08-31T12:59:06.661Z,23.10
2022-08-31T13:02:13.106Z,23.10
2022-08-31T13:05:23.073Z,23.20
2022-08-31T13:08:25.838Z,23.30
2022-08-31T13:11:41.129Z,23.40
2022-08-31T13:14:43.981Z,23.50
2022-08-31T13:17:53.096Z,23.60
2022-08-31T13:20:56.871Z,23.50
2022-08-31T13:24:10.790Z,23.60
2022-08-31T13:27:22.690Z,23.60
2022-08-31T13:30:25.897Z,23.70
2022-08-31T13:33:34.964Z,23.60
2022-08-31T13:36:53.034Z,23.70
2022-08-31T13:39:56.005Z,23.70
2022-08-31T13:42:59.225Z,23.80
2022-08-31T13:46:02.075Z,23.80
2022-08-31T13:49:08.654Z,23.80
2022-08-31T13:52:23.711Z,23.70
2022-08-31T13:55:38.109Z,23.80
2022-08-31T13:58:41.035Z,23.90
2022-08-31T14:01:53.032Z,23.90
2022-08-31T14:04:58.318Z,23.90
2022-08-31T14:08:07.303Z,23.90
2022-08-31T14:11:17.131Z,23.90
2022-08-31T14:14:25.433Z,23.90
2022-08-31T14:17:28.074Z,23.90
2022-08-31T14:20:37.208Z,24.00
2022-08-31T14:23:43.847Z,24.00
2022-08-31T14:26:45.789Z,24.10
2022-08-31T14:29:47.759Z,24.10
2022-08-31T14:32:49.498Z,24.10
2022-08-31T14:35:54.908Z,24.00
2022-08-31T14:38:57.388Z,24.00
2022-08-31T14:42:11.820Z,24.00
2022-08-31T14:45:19.034Z,24.00
2022-08-31T14:48:21.101Z,24.00
2022-08-31T14:51:24.341Z,24.00
2022-08-31T14:54:34.930Z,24.00
2022-08-31T14:57:40.430Z,24.10
2022-08-31T15:00:53.176Z,24.10
2022-08-31T15:03:56.008Z,24.10
2022-08-31T15:07:09.492Z,24.10
2022-08-31T15:10:12.987Z,24.10
2022-08-31T15:13:16.741Z,24.20
2022-08-31T15:16:18.482Z,24.20
2022-08-31T15:19:23.168Z,24.30
2022-08-31T15:22:26.619Z,24.30
2022-08-31T15:25:28.811Z,24.20
2022-08-31T15:28:37.247Z,24.30
2022-08-31T15:31:42.112Z,24.20
2022-08-31T15:34:50.043Z,24.30
2022-08-31T15:37:58.893Z,24.30
2022-08-31T15:41:00.931Z,24.30
2022-08-31T15:44:10.210Z,24.30
2022-08-31T15:47:31.039Z,24.30
2022-08-31T15:50:35.786Z,24.30
2022-08-31T15:53:41.678Z,24.30
2022-08-31T15:56:43.820Z,24.30
2022-08-31T15:59:45.968Z,24.30
2022-08-31T16:02:48.230Z,24.30
2022-08-31T16:05:49.963Z,24.30
2022-08-31T16:08:55.386Z,24.30
2022-08-31T16:16:18.685Z,24.30
2022-08-31T16:22:58.752Z,24.30
2022-08-31T16:26:00.764Z,24.30
2022-08-31T16:29:03.889Z,24.30
2022-08-31T16:32:08.314Z,24.30
2022-08-31T16:35:10.761Z,24.30
2022-08-31T16:38:13.544Z,24.30
2022-08-31T16:41:17.850Z,24.30
2022-08-31T16:44:20.463Z,24.30
2022-08-31T16:47:22.347Z,24.30
2022-08-31T16:50:24.111Z,24.20
2022-08-31T16:53:25.926Z,24.20
2022-08-31T16:56:31.355Z,24.20
2022-08-31T16:59:33.547Z,24.20
2022-08-31T17:02:35.655Z,24.20
2022-08-31T17:05:37.534Z,24.20
2022-08-31T17:08:47.019Z,24.20
2022-08-31T17:12:07.533Z,24.20
2022-08-31T17:15:13.930Z,24.20
2022-08-31T17:18:15.945Z,24.10
2022-08-31T17:21:20.427Z,24.10
2022-08-31T17:24:27.106Z,24.10
2022-08-31T17:27:29.068Z,24.10
2022-08-31T17:34:56.920Z,24.00
2022-08-31T17:37:59.665Z,24.00
2022-08-31T17:41:06.520Z,23.90
2022-08-31T17:44:10.474Z,23.90
2022-08-31T17:47:12.487Z,23.80
2022-08-31T17:50:17.143Z,23.80
2022-08-31T17:53:18.913Z,23.70
2022-08-31T17:56:24.994Z,23.70
2022-08-31T17:59:32.740Z,23.70
2022-08-31T18:02:35.059Z,23.60
2022-08-31T18:05:39.675Z,23.60
2022-08-31T18:08:43.578Z,23.60
2022-08-31T18:11:46.263Z,23.50
2022-08-31T18:14:57.442Z,23.50
2022-08-31T18:17:59.330Z,23.40
2022-08-31T18:21:07.118Z,23.40
2022-08-31T18:24:10.252Z,23.40
2022-08-31T18:27:18.074Z,23.40
2022-08-31T18:30:20.767Z,23.40
2022-08-31T18:33:22.726Z,23.30
2022-08-31T18:36:26.366Z,23.30
2022-08-31T18:39:51.519Z,23.20
2022-08-31T18:43:13.902Z,23.10
2022-08-31T18:46:15.761Z,23.10
2022-08-31T18:49:22.088Z,23.10
2022-08-31T18:52:25.578Z,23.00
2022-08-31T18:55:41.000Z,23.00
2022-08-31T18:58:43.861Z,23.00
2022-08-31T19:01:46.642Z,22.90
2022-08-31T19:04:50.752Z,22.90
2022-08-31T19:07:52.566Z,22.80
2022-08-31T19:10:56.304Z,22.80
2022-08-31T19:13:59.244Z,22.70
2022-08-31T19:17:04.658Z,22.70
2022-08-31T19:20:10.245Z,22.70
2022-08-31T19:23:14.539Z,22.70
2022-08-31T19:26:25.946Z,22.60
2022-08-31T19:29:31.192Z,22.60
2022-08-31T19:32:33.917Z,22.60
2022-08-31T19:35:36.539Z,22.50
2022-08-31T19:38:41.512Z,22.50
2022-08-31T19:41:51.968Z,22.40
2022-08-31T19:45:22.725Z,22.40
2022-08-31T19:48:23.057Z,22.40
2022-08-31T19:51:25.949Z,22.40
2022-08-31T19:54:31.277Z,22.30
2022-08-31T19:57:34.350Z,22.30
2022-08-31T20:00:37.943Z,22.20
2022-08-31T20:03:41.188Z,22.20
2022-08-31T20:06:45.231Z,22.20
2022-08-31T20:09:47.040Z,22.20
2022-08-31T20:12:48.944Z,22.20
2022-08-31T20:15:56.058Z,22.20
2022-08-31T20:18:59.872Z,22.10
2022-08-31T20:22:08.079Z,22.10
2022-08-31T20:25:17.574Z,22.10
2022-08-31T20:28:30.270Z,22.10
2022-08-31T20:31:32.731Z,22.10
2022-08-31T20:34:34.619Z,22.10
2022-08-31T20:37:36.928Z,22.10
2022-08-31T20:40:41.105Z,22.10
2022-08-31T20:43:44.517Z,22.10
2022-08-31T20:47:06.017Z,22.10
2022-08-31T20:50:11.447Z,22.10
2022-08-31T20:53:13.828Z,22.00
2022-08-31T20:56:18.404Z,21.90
2022-08-31T20:59:25.150Z,21.80
2022-08-31T21:02:27.852Z,21.80
2022-08-31T21:05:39.536Z,21.80
2022-08-31T21:08:42.772Z,21.80
2022-08-31T21:11:44.866Z,21.70
2022-08-31T21:14:46.922Z,21.60
2022-08-31T21:17:50.565Z,21.60
2022-08-31T21:20:52.376Z,21.60
2022-08-31T21:23:54.944Z,21.60
2022-08-31T21:26:59.461Z,21.50
2022-08-31T21:30:04.190Z,21.50
2022-08-31T21:33:06.236Z,21.40
2022-08-31T21:36:12.337Z,21.40
2022-08-31T21:39:17.135Z,21.30
2022-08-31T21:42:19.125Z,21.30
2022-08-31T21:45:21.037Z,21.30
2022-08-31T21:48:23.908Z,21.20
2022-08-31T21:51:34.316Z,21.20
2022-08-31T21:54:36.295Z,21.20
2022-08-31T21:57:38.260Z,21.20
2022-08-31T22:00:42.269Z,21.10
2022-08-31T22:03:57.484Z,21.10
2022-08-31T22:07:01.050Z,21.10
2022-08-31T22:10:02.809Z,21.00
2022-08-31T22:13:06.016Z,20.90
2022-08-31T22:16:13.294Z,21.00
2022-08-31T22:19:20.925Z,21.00
2022-08-31T22:22:23.395Z,20.90
2022-08-31T22:25:25.588Z,20.80
2022-08-31T22:28:27.591Z,20.80
2022-08-31T22:31:29.582Z,20.80
2022-08-31T22:34:31.404Z,20.80
2022-08-31T22:37:35.315Z,20.70
2022-08-31T22:40:39.383Z,20.70
2022-08-31T22:43:42.821Z,20.60
2022-08-31T22:46:46.317Z,20.60
2022-08-31T22:49:48.264Z,20.60
2022-08-31T22:52:50.401Z,20.60
2022-08-31T22:55:52.252Z,20.60
2022-08-31T22:58:56.133Z,20.60
2022-08-31T23:02:04.063Z,20.60
2022-08-31T23:05:06.603Z,20.50
2022-08-31T23:08:08.476Z,20.50
2022-08-31T23:11:12.854Z,20.50
2022-08-31T23:14:14.833Z,20.50
2022-08-31T23:17:18.183Z,20.40
2022-08-31T23:20:24.017Z,20.40
2022-08-31T23:23:26.135Z,20.40
2022-08-31T23:26:30.279Z,20.20
2022-08-31T23:29:35.751Z,20.20
2022-08-31T23:32:38.224Z,20.20
2022-08-31T23:35:41.303Z,20.20
2022-08-31T23:38:49.879Z,20.10
2022-08-31T23:41:53.120Z,20.10
2022-08-31T23:44:56.110Z,20.00
2022-08-31T23:47:57.946Z,20.00
2022-08-31T23:51:02.319Z,20.00
2022-08-31T23:54:07.720Z,20.00
2022-08-31T23:57:14.339Z,19.80
